createdAt,value
2023-03-18T00:01:59.313Z,8.90
2023-03-18T00:04:26.059Z,8.80
2023-03-18T00:06:52.797Z,8.90
2023-03-18T00:09:19.764Z,8.90
2023-03-18T00:11:46.629Z,8.80
2023-03-18T00:14:13.442Z,8.80
2023-03-18T00:16:40.444Z,8.80
2023-03-18T00:19:07.779Z,8.70
2023-03-18T00:21:34.701Z,8.70
2023-03-18T00:24:01.651Z,8.70
2023-03-18T00:26:28.991Z,8.70
2023-03-18T00:28:57.058Z,8.70
2023-03-18T00:31:25.115Z,8.70
2023-03-18T00:33:52.277Z,8.70
2023-03-18T00:36:19.201Z,8.70
2023-03-18T00:38:47.693Z,8.70
2023-03-18T00:41:14.546Z,8.70
2023-03-18T00:43:47.007Z,8.70
2023-03-18T00:46:34.342Z,8.60
2023-03-18T00:49:05.251Z,8.60
2023-03-18T00:51:34.209Z,8.70
2023-03-18T00:54:02.554Z,8.70
2023-03-18T00:56:31.317Z,8.70
2023-03-18T00:58:58.420Z,8.70
2023-03-18T01:01:26.025Z,8.70
2023-03-18T01:03:52.850Z,8.70
2023-03-18T01:09:12.742Z,8.70
2023-03-18T01:11:39.562Z,8.80
2023-03-18T01:14:06.388Z,8.80
2023-03-18T01:16:33.194Z,8.80
2023-03-18T01:19:00.117Z,8.80
2023-03-18T01:21:26.919Z,8.80
2023-03-18T01:23:53.732Z,8.80
2023-03-18T01:26:20.547Z,8.80
2023-03-18T01:28:47.289Z,8.80
2023-03-18T01:31:14.092Z,8.80
2023-03-18T01:33:40.865Z,8.90
2023-03-18T01:36:08.138Z,8.90
2023-03-18T01:38:35.062Z,8.90
2023-03-18T01:41:02.459Z,9.00
2023-03-18T01:43:35.519Z,9.00
2023-03-18T01:46:41.918Z,9.00
2023-03-18T01:49:26.161Z,9.10
2023-03-18T01:51:57.400Z,9.10
2023-03-18T01:54:26.398Z,9.00
2023-03-18T01:56:54.566Z,9.10
2023-03-18T01:59:24.076Z,9.10
2023-03-18T02:01:58.232Z,9.10
2023-03-18T02:04:30.361Z,9.20
2023-03-18T02:06:58.452Z,9.20
2023-03-18T02:09:25.464Z,9.30
2023-03-18T02:11:52.290Z,9.20
2023-03-18T02:14:24.782Z,9.40
2023-03-18T02:17:13.450Z,9.40
2023-03-18T02:20:01.816Z,9.30
2023-03-18T02:22:32.122Z,9.40
2023-03-18T02:28:24.487Z,9.10
2023-03-18T02:30:56.108Z,8.90
2023-03-18T02:33:26.630Z,8.80
2023-03-18T02:35:57.747Z,8.50
2023-03-18T02:38:24.580Z,8.30
2023-03-18T02:40:51.315Z,8.20
2023-03-18T02:43:21.200Z,8.20
2023-03-18T02:46:06.217Z,8.10
2023-03-18T02:48:39.411Z,8.00
2023-03-18T02:51:07.748Z,7.90
2023-03-18T02:53:34.989Z,7.80
2023-03-18T02:58:51.263Z,7.70
2023-03-18T03:04:06.240Z,7.60
2023-03-18T03:09:19.965Z,7.60
2023-03-18T03:11:47.361Z,7.60
2023-03-18T03:14:15.480Z,7.70
2023-03-18T03:16:42.794Z,7.70
2023-03-18T03:19:09.744Z,7.70
2023-03-18T03:21:36.563Z,7.70
2023-03-18T03:24:05.935Z,7.70
2023-03-18T03:26:32.977Z,7.70
2023-03-18T03:28:59.778Z,7.70
2023-03-18T03:31:26.783Z,7.70
2023-03-18T03:33:53.818Z,7.70
2023-03-18T03:36:21.346Z,7.70
2023-03-18T03:38:48.139Z,7.60
2023-03-18T03:41:15.035Z,7.60
2023-03-18T03:43:42.496Z,7.60
2023-03-18T03:46:09.732Z,7.50
2023-03-18T03:48:37.170Z,7.40
2023-03-18T03:51:04.437Z,7.40
2023-03-18T03:53:32.194Z,7.40
2023-03-18T03:55:59.364Z,7.40
2023-03-18T03:58:26.927Z,7.40
2023-03-18T04:00:53.734Z,7.50
2023-03-18T04:03:20.556Z,7.50
2023-03-18T04:05:47.314Z,7.50
2023-03-18T04:08:14.098Z,7.50
2023-03-18T04:10:40.871Z,7.60
2023-03-18T04:13:07.774Z,7.70
2023-03-18T04:15:35.029Z,7.80
2023-03-18T04:18:01.795Z,7.80
2023-03-18T04:20:28.584Z,7.60
2023-03-18T04:22:55.441Z,7.70
2023-03-18T04:25:22.199Z,7.70
2023-03-18T04:27:48.993Z,7.80
2023-03-18T04:30:15.768Z,7.80
2023-03-18T04:32:42.541Z,7.70
2023-03-18T04:35:09.778Z,7.60
2023-03-18T04:37:37.387Z,7.60
2023-03-18T04:40:05.542Z,7.70
2023-03-18T04:42:32.551Z,7.70
2023-03-18T04:44:59.297Z,7.70
2023-03-18T04:47:26.251Z,7.70
2023-03-18T04:49:53.023Z,7.70
2023-03-18T04:52:19.798Z,7.70
2023-03-18T04:54:46.556Z,7.80
2023-03-18T05:00:00.294Z,7.80
2023-03-18T05:05:13.876Z,7.70
2023-03-18T05:07:41.012Z,7.70
2023-03-18T05:10:08.814Z,7.70
2023-03-18T05:12:36.477Z,7.70
2023-03-18T05:15:04.517Z,7.70
2023-03-18T05:17:31.338Z,7.70
2023-03-18T05:19:58.102Z,7.70
2023-03-18T05:22:25.093Z,7.80
2023-03-18T05:24:51.880Z,7.70
2023-03-18T05:27:19.716Z,7.80
2023-03-18T05:29:46.605Z,7.70
2023-03-18T05:32:13.982Z,7.70
2023-03-18T05:34:41.489Z,7.70
2023-03-18T05:37:10.230Z,7.80
2023-03-18T05:42:23.926Z,7.80
2023-03-18T05:44:50.697Z,7.90
2023-03-18T05:50:04.903Z,7.80
2023-03-18T05:55:18.437Z,7.90
2023-03-18T06:00:31.975Z,8.00
2023-03-18T06:05:47.064Z,8.20
2023-03-18T06:08:13.854Z,8.20
2023-03-18T06:10:40.610Z,8.30
2023-03-18T06:13:07.430Z,8.30
2023-03-18T06:15:34.279Z,8.40
2023-03-18T06:18:01.128Z,8.40
2023-03-18T06:20:27.894Z,8.50
2023-03-18T06:22:54.657Z,8.50
2023-03-18T06:25:21.843Z,8.50
2023-03-18T06:27:49.152Z,8.60
2023-03-18T06:30:16.977Z,8.50
2023-03-18T06:32:44.324Z,8.50
2023-03-18T06:35:12.917Z,8.60
2023-03-18T06:37:40.164Z,8.60
2023-03-18T06:40:08.446Z,8.70
2023-03-18T06:42:35.601Z,8.70
2023-03-18T06:45:02.980Z,8.60
2023-03-18T06:47:29.957Z,8.70
2023-03-18T06:49:57.098Z,8.80
2023-03-18T06:52:24.145Z,8.80
2023-03-18T06:54:51.220Z,8.80
2023-03-18T06:57:18.016Z,8.80
2023-03-18T06:59:44.945Z,8.90
2023-03-18T07:04:58.458Z,8.90
2023-03-18T07:10:22.414Z,9.00
2023-03-18T07:12:50.034Z,9.10
2023-03-18T07:15:17.283Z,9.10
2023-03-18T07:17:44.095Z,9.20
2023-03-18T07:20:11.536Z,9.20
2023-03-18T07:22:38.364Z,9.30
2023-03-18T07:25:05.602Z,9.30
2023-03-18T07:27:32.323Z,9.40
2023-03-18T07:29:59.097Z,9.50
2023-03-18T07:32:26.007Z,9.50
2023-03-18T07:34:52.762Z,9.50
2023-03-18T07:37:19.551Z,9.60
2023-03-18T07:39:46.341Z,9.70
2023-03-18T07:42:13.217Z,10.00
2023-03-18T07:44:40.089Z,10.10
2023-03-18T07:47:07.077Z,10.20
2023-03-18T07:52:20.527Z,10.50
2023-03-18T07:57:33.969Z,10.50
2023-03-18T08:02:47.600Z,11.00
2023-03-18T08:05:14.525Z,11.60
2023-03-18T08:07:41.586Z,13.50
2023-03-18T08:10:09.313Z,14.20
2023-03-18T08:12:51.261Z,15.00
2023-03-18T08:15:19.191Z,14.70
2023-03-18T08:17:46.077Z,15.50
2023-03-18T08:20:13.287Z,15.60
2023-03-18T08:22:40.234Z,16.00
2023-03-18T08:25:07.416Z,16.00
2023-03-18T08:27:34.400Z,15.40
2023-03-18T08:30:03.530Z,15.20
2023-03-18T08:32:30.714Z,14.40
2023-03-18T08:34:57.555Z,13.90
2023-03-18T08:37:24.366Z,13.50
2023-03-18T08:39:51.109Z,13.60
2023-03-18T08:42:17.859Z,14.50
2023-03-18T08:44:44.614Z,13.60
2023-03-18T08:47:11.495Z,13.60
2023-03-18T08:49:38.401Z,13.40
2023-03-18T08:54:52.003Z,13.80
2023-03-18T09:00:06.530Z,14.10
2023-03-18T09:02:33.343Z,15.60
2023-03-18T09:05:00.078Z,15.50
2023-03-18T09:07:26.883Z,14.70
2023-03-18T09:09:53.636Z,14.50
2023-03-18T09:12:20.386Z,14.40
2023-03-18T09:14:47.154Z,15.20
2023-03-18T09:17:13.955Z,15.20
2023-03-18T09:19:40.740Z,15.90
2023-03-18T09:22:08.097Z,16.10
2023-03-18T09:27:21.592Z,15.20
2023-03-18T09:29:48.394Z,15.20
2023-03-18T09:32:15.171Z,15.30
2023-03-18T09:34:42.122Z,15.20
2023-03-18T09:37:08.893Z,15.80
2023-03-18T09:39:35.694Z,15.80
2023-03-18T09:45:28.078Z,14.90
2023-03-18T09:48:25.009Z,14.60
2023-03-18T09:53:59.470Z,14.20
2023-03-18T09:56:30.531Z,14.10
2023-03-18T09:59:18.450Z,14.20
2023-03-18T10:01:49.119Z,14.20
2023-03-18T10:04:26.099Z,14.20
2023-03-18T10:07:08.149Z,14.20
2023-03-18T10:09:45.440Z,14.40
2023-03-18T10:12:33.957Z,14.40
2023-03-18T10:15:26.665Z,14.20
2023-03-18T10:18:09.070Z,14.30
2023-03-18T10:20:58.381Z,14.60
2023-03-18T10:23:54.278Z,14.60
2023-03-18T10:26:28.661Z,14.50
2023-03-18T10:29:22.179Z,15.10
2023-03-18T10:32:14.904Z,15.90
2023-03-18T10:34:49.240Z,16.80
2023-03-18T10:37:40.335Z,17.50
2023-03-18T10:40:15.729Z,18.20
2023-03-18T10:45:33.594Z,17.90
2023-03-18T10:48:10.698Z,17.60
2023-03-18T10:50:40.237Z,17.10
2023-03-18T10:53:32.960Z,16.50
2023-03-18T10:56:14.279Z,16.40
2023-03-18T10:58:42.213Z,16.20
2023-03-18T11:01:12.465Z,16.10
2023-03-18T11:09:45.256Z,15.50
2023-03-18T11:12:27.148Z,15.30
2023-03-18T11:14:54.485Z,15.30
2023-03-18T11:20:31.301Z,15.10
2023-03-18T11:23:05.889Z,15.30
2023-03-18T11:25:32.739Z,15.30
2023-03-18T11:30:44.920Z,14.70
2023-03-18T11:33:12.018Z,14.50
2023-03-18T11:35:53.576Z,14.50
2023-03-18T11:38:26.412Z,14.60
2023-03-18T11:40:53.202Z,14.50
2023-03-18T11:43:22.837Z,14.60
2023-03-18T11:45:54.993Z,14.50
2023-03-18T11:48:41.085Z,14.40
2023-03-18T11:51:27.174Z,14.40
2023-03-18T11:54:12.125Z,14.40
2023-03-18T11:56:59.957Z,14.30
2023-03-18T12:02:14.420Z,14.80
2023-03-18T12:05:02.719Z,14.80
2023-03-18T12:07:38.103Z,15.10
2023-03-18T12:10:11.124Z,15.70
2023-03-18T12:12:54.750Z,17.00
2023-03-18T12:15:46.234Z,17.60
2023-03-18T12:18:15.960Z,18.70
2023-03-18T12:20:55.097Z,18.90
2023-03-18T12:26:50.099Z,19.00
2023-03-18T12:29:35.675Z,18.30
2023-03-18T12:35:22.660Z,18.10
2023-03-18T12:38:22.483Z,17.60
2023-03-18T12:41:01.136Z,17.50
2023-03-18T12:44:01.823Z,17.00
2023-03-18T12:46:32.984Z,17.00
2023-03-18T12:51:54.655Z,16.90
2023-03-18T13:00:41.079Z,17.10
2023-03-18T13:03:35.593Z,16.70
2023-03-18T13:09:07.398Z,16.90
2023-03-18T13:12:20.828Z,17.80
2023-03-18T13:15:26.100Z,17.30
2023-03-18T13:17:57.636Z,17.00
2023-03-18T13:20:29.215Z,17.60
2023-03-18T13:23:29.721Z,17.60
2023-03-18T13:25:59.204Z,17.40
2023-03-18T13:28:53.526Z,17.50
2023-03-18T13:31:40.531Z,18.00
2023-03-18T13:34:29.195Z,18.90
2023-03-18T13:37:22.354Z,19.60
2023-03-18T13:40:18.281Z,19.10
2023-03-18T13:42:48.090Z,18.70
2023-03-18T13:45:49.058Z,19.40
2023-03-18T13:48:30.639Z,19.80
2023-03-18T13:50:58.805Z,19.70
2023-03-18T13:53:29.678Z,20.50
2023-03-18T13:55:56.493Z,21.00
2023-03-18T13:58:23.234Z,20.90
2023-03-18T14:03:42.482Z,20.60
2023-03-18T14:06:09.217Z,20.60
2023-03-18T14:08:38.777Z,20.50
2023-03-18T14:11:17.773Z,20.20
2023-03-18T14:13:44.942Z,20.40
2023-03-18T14:19:31.743Z,20.50
2023-03-18T14:22:08.861Z,20.10
2023-03-18T14:24:36.334Z,19.90
2023-03-18T14:27:03.046Z,19.50
2023-03-18T14:29:39.319Z,19.80
2023-03-18T14:32:26.772Z,19.50
2023-03-18T14:34:58.722Z,19.00
2023-03-18T14:37:30.507Z,18.70
2023-03-18T14:40:13.791Z,19.20
2023-03-18T14:43:01.277Z,19.30
2023-03-18T14:45:33.272Z,19.10
2023-03-18T14:48:04.933Z,19.20
2023-03-18T14:50:49.826Z,19.10
2023-03-18T14:53:39.784Z,19.40
2023-03-18T14:56:18.157Z,18.80
2023-03-18T14:58:46.860Z,18.50
2023-03-18T15:01:15.978Z,18.60
2023-03-18T15:03:46.312Z,18.30
2023-03-18T15:06:20.082Z,18.10
2023-03-18T15:09:02.556Z,18.20
2023-03-18T15:11:29.432Z,18.10
2023-03-18T15:13:58.796Z,18.10
2023-03-18T15:16:29.468Z,17.90
2023-03-18T15:18:56.853Z,17.80
2023-03-18T15:21:30.934Z,17.70
2023-03-18T15:24:02.023Z,17.60
2023-03-18T15:26:34.793Z,17.50
2023-03-18T15:29:21.837Z,17.40
2023-03-18T15:31:48.674Z,17.10
2023-03-18T15:34:23.876Z,16.90
2023-03-18T15:36:56.740Z,16.90
2023-03-18T15:42:20.193Z,16.60
2023-03-18T15:44:59.477Z,16.60
2023-03-18T15:47:29.671Z,16.70
2023-03-18T15:49:59.493Z,16.40
2023-03-18T15:52:34.346Z,16.60
2023-03-18T15:55:01.897Z,16.50
2023-03-18T15:57:36.414Z,16.40
2023-03-18T16:00:04.215Z,16.30
2023-03-18T16:02:31.041Z,16.10
2023-03-18T16:05:19.924Z,16.10
2023-03-18T16:07:47.321Z,16.20
2023-03-18T16:10:14.627Z,16.00
2023-03-18T16:12:41.842Z,16.00
2023-03-18T16:15:16.202Z,16.00
2023-03-18T16:17:42.971Z,15.90
2023-03-18T16:20:19.041Z,15.90
2023-03-18T16:25:32.915Z,15.90
2023-03-18T16:30:47.892Z,15.80
2023-03-18T16:36:03.460Z,15.70
2023-03-18T16:38:30.925Z,15.60
2023-03-18T16:40:57.872Z,15.50
2023-03-18T16:43:27.487Z,15.50
2023-03-18T16:48:44.963Z,15.30
2023-03-18T16:53:58.396Z,15.10
2023-03-18T16:56:25.256Z,15.00
2023-03-18T16:58:52.010Z,15.00
2023-03-18T17:01:18.887Z,14.90
2023-03-18T17:03:45.769Z,14.80
2023-03-18T17:06:12.811Z,14.70
2023-03-18T17:08:39.661Z,14.60
2023-03-18T17:11:06.626Z,14.50
2023-03-18T17:13:35.451Z,14.50
2023-03-18T17:16:02.301Z,14.30
2023-03-18T17:18:29.082Z,14.20
2023-03-18T17:20:55.864Z,14.10
2023-03-18T17:23:25.488Z,14.00
2023-03-18T17:25:57.618Z,14.00
2023-03-18T17:28:34.113Z,13.80
2023-03-18T17:31:01.349Z,13.70
2023-03-18T17:35:58.220Z,13.40
2023-03-18T17:38:25.427Z,13.30
2023-03-18T17:43:39.201Z,13.20
2023-03-18T17:46:06.450Z,13.10
2023-03-18T17:48:35.577Z,13.00
2023-03-18T17:51:06.352Z,12.90
2023-03-18T17:53:44.703Z,12.70
2023-03-18T17:56:14.177Z,12.70
2023-03-18T17:58:44.010Z,12.60
2023-03-18T18:01:19.863Z,12.50
2023-03-18T18:03:46.886Z,12.50
2023-03-18T18:06:32.178Z,12.40
2023-03-18T18:08:59.914Z,12.30
2023-03-18T18:14:19.585Z,12.20
2023-03-18T18:19:34.415Z,12.00
2023-03-18T18:22:01.203Z,11.90
2023-03-18T18:24:32.074Z,11.90
2023-03-18T18:26:59.873Z,11.70
2023-03-18T18:29:27.977Z,11.70
2023-03-18T18:31:54.965Z,11.60
2023-03-18T18:34:21.756Z,11.60
2023-03-18T18:36:49.500Z,11.50
2023-03-18T18:39:16.501Z,11.40
2023-03-18T18:41:43.301Z,11.40
2023-03-18T18:44:10.089Z,11.30
2023-03-18T18:46:37.037Z,11.30
2023-03-18T18:49:03.990Z,11.30
2023-03-18T18:51:30.895Z,11.30
2023-03-18T18:56:44.355Z,11.40
2023-03-18T18:59:28.636Z,11.40
2023-03-18T19:01:56.506Z,11.30
2023-03-18T19:04:23.838Z,11.30
2023-03-18T19:06:51.579Z,11.20
2023-03-18T19:09:26.276Z,11.20
2023-03-18T19:14:40.755Z,11.10
2023-03-18T19:17:14.482Z,11.10
2023-03-18T19:19:42.505Z,11.00
2023-03-18T19:22:17.825Z,11.00
2023-03-18T19:24:45.458Z,11.10
2023-03-18T19:27:24.383Z,11.10
2023-03-18T19:29:53.193Z,11.10
2023-03-18T19:32:22.594Z,11.00
2023-03-18T19:34:50.475Z,10.80
2023-03-18T19:37:21.816Z,10.80
2023-03-18T19:39:48.771Z,10.70
2023-03-18T19:42:19.094Z,10.80
2023-03-18T19:44:46.678Z,10.90
2023-03-18T19:47:22.857Z,10.90
2023-03-18T19:49:50.135Z,10.90
2023-03-18T19:54:50.655Z,10.80
2023-03-18T19:57:19.443Z,10.70
2023-03-18T19:59:48.509Z,10.80
2023-03-18T20:02:34.641Z,10.80
2023-03-18T20:05:04.479Z,10.70
2023-03-18T20:07:32.713Z,10.70
2023-03-18T20:09:59.866Z,10.60
2023-03-18T20:12:38.378Z,10.60
2023-03-18T20:15:07.833Z,10.60
2023-03-18T20:17:34.580Z,10.40
2023-03-18T20:20:01.524Z,10.40
2023-03-18T20:22:40.467Z,10.50
2023-03-18T20:25:15.438Z,10.50
2023-03-18T20:27:42.190Z,10.40
2023-03-18T20:33:09.677Z,10.40
2023-03-18T20:35:42.487Z,10.40
2023-03-18T20:38:27.746Z,10.30
2023-03-18T20:43:41.528Z,10.30
2023-03-18T20:48:59.631Z,10.10
2023-03-18T20:51:32.116Z,9.90
2023-03-18T20:53:59.329Z,9.90
2023-03-18T20:56:26.098Z,9.90
2023-03-18T21:01:39.922Z,10.00
2023-03-18T21:06:56.589Z,9.90
2023-03-18T21:12:16.685Z,9.90
2023-03-18T21:17:30.126Z,9.80
2023-03-18T21:22:45.688Z,9.60
2023-03-18T21:28:03.658Z,9.40
2023-03-18T21:33:24.964Z,9.40
2023-03-18T21:38:38.692Z,9.30
2023-03-18T21:41:18.843Z,9.20
2023-03-18T21:43:46.110Z,9.20
2023-03-18T21:46:16.322Z,9.20
2023-03-18T21:48:43.060Z,9.20
2023-03-18T21:51:38.023Z,9.20
2023-03-18T21:54:06.665Z,9.10
2023-03-18T21:56:33.445Z,8.90
2023-03-18T21:59:00.208Z,8.90
2023-03-18T22:01:30.177Z,8.90
2023-03-18T22:03:57.042Z,8.80
2023-03-18T22:06:23.849Z,8.80
2023-03-18T22:08:50.585Z,8.80
2023-03-18T22:11:19.511Z,8.90
2023-03-18T22:13:48.222Z,9.00
2023-03-18T22:16:16.662Z,9.00
2023-03-18T22:18:44.616Z,9.00
2023-03-18T22:21:22.026Z,9.10
2023-03-18T22:23:48.883Z,9.10
2023-03-18T22:26:18.018Z,9.10
2023-03-18T22:28:45.719Z,9.10
2023-03-18T22:31:21.580Z,9.10
2023-03-18T22:33:48.467Z,9.20
2023-03-18T22:36:16.961Z,9.10
2023-03-18T22:38:43.887Z,9.10
2023-03-18T22:44:10.646Z,9.20
2023-03-18T22:49:04.045Z,9.20
2023-03-18T22:51:33.124Z,9.30
2023-03-18T22:56:46.581Z,9.30
2023-03-18T23:01:59.976Z,9.20
2023-03-18T23:07:31.161Z,9.20
2023-03-18T23:12:48.319Z,9.30
2023-03-18T23:18:15.601Z,9.30
2023-03-18T23:20:45.072Z,9.30
2023-03-18T23:23:13.001Z,9.40
2023-03-18T23:25:41.094Z,9.50
2023-03-18T23:28:08.208Z,9.50
2023-03-18T23:30:36.663Z,9.60
2023-03-18T23:33:03.595Z,9.50
2023-03-18T23:35:30.427Z,9.50
2023-03-18T23:37:57.209Z,9.50
2023-03-18T23:40:24.822Z,9.40
2023-03-18T23:42:51.697Z,9.40
2023-03-18T23:45:18.748Z,9.50
2023-03-18T23:47:45.898Z,9.40
2023-03-18T23:50:12.999Z,9.40
2023-03-18T23:52:39.745Z,9.40
2023-03-18T23:55:17.814Z,9.40
